Time;durP1;ratioP1;P1;durP2;ratioP2;P2;SDS_P1;SDS_P2;PMS_P1;PMS_P2;Temp;Humidity;BMP_temperature;BMP_pressure;BME280_temperature;BME280_humidity;BME280_pressure;Samples;Min_cycle;Max_cycle;Signal;HPM_P1;HPM_P2
2021/11/06 00:01:38;;;;;;;3.50;2.13;;;;;;;;;;5112260;28;20069;-46
2021/11/06 00:04:04;;;;;;;1.83;1.42;;;;;;;;;;5111335;28;20055;-46
2021/11/06 00:06:31;;;;;;;2.35;1.50;;;;;;;;;;5111930;28;20032;-45
2021/11/06 00:08:57;;;;;;;2.00;1.70;;;;;;;;;;5111402;28;20023;-46
2021/11/06 00:11:23;;;;;;;1.95;1.52;;;;;;;;;;5112329;28;20027;-46
2021/11/06 00:13:49;;;;;;;1.75;1.35;;;;;;;;;;5111157;28;20019;-45
2021/11/06 00:16:15;;;;;;;2.00;1.55;;;;;;;;;;5112269;28;20035;-46
2021/11/06 00:18:41;;;;;;;2.28;1.63;;;;;;;;;;5114673;28;20019;-51
2021/11/06 00:21:07;;;;;;;1.83;1.48;;;;;;;;;;5115564;28;20468;-46
2021/11/06 00:23:33;;;;;;;2.17;1.42;;;;;;;;;;5115701;28;20026;-45
2021/11/06 00:25:59;;;;;;;2.70;1.55;;;;;;;;;;5115337;28;20520;-47
2021/11/06 00:28:25;;;;;;;1.52;1.30;;;;;;;;;;5116261;28;20032;-46
2021/11/06 00:30:51;;;;;;;3.00;1.63;;;;;;;;;;5115266;28;20011;-46
2021/11/06 00:33:17;;;;;;;1.67;1.20;;;;;;;;;;5116090;28;20333;-45
2021/11/06 00:35:44;;;;;;;2.30;1.63;;;;;;;;;;5114726;28;20043;-51
2021/11/06 00:38:09;;;;;;;1.98;1.70;;;;;;;;;;5115934;28;20024;-46
2021/11/06 00:40:36;;;;;;;3.25;1.95;;;;;;;;;;5115826;28;20022;-46
2021/11/06 00:43:02;;;;;;;2.53;1.80;;;;;;;;;;5114947;28;20027;-46
2021/11/06 00:45:28;;;;;;;2.42;1.98;;;;;;;;;;5115543;28;20104;-45
2021/11/06 00:47:54;;;;;;;2.40;1.70;;;;;;;;;;5114477;28;20182;-45
2021/11/06 00:50:20;;;;;;;2.00;1.70;;;;;;;;;;5115489;28;20084;-45
2021/11/06 00:52:46;;;;;;;2.25;1.70;;;;;;;;;;5114818;28;20020;-53
2021/11/06 00:55:13;;;;;;;2.63;1.48;;;;;;;;;;5097050;28;20464;-45
2021/11/06 00:57:39;;;;;;;2.05;1.80;;;;;;;;;;5115213;28;20035;-46
2021/11/06 01:00:07;;;;;;;2.17;1.65;;;;;;;;;;5115555;28;20315;-46
2021/11/06 01:02:33;;;;;;;2.28;1.92;;;;;;;;;;5116051;28;20020;-46
2021/11/06 01:04:59;;;;;;;1.80;1.60;;;;;;;;;;5114340;28;20039;-46
2021/11/06 01:07:25;;;;;;;2.22;1.48;;;;;;;;;;5115206;28;20112;-45
2021/11/06 01:09:51;;;;;;;2.47;1.95;;;;;;;;;;5114052;28;20478;-45
2021/11/06 01:12:17;;;;;;;1.92;1.67;;;;;;;;;;5115265;28;20099;-45
2021/11/06 01:14:43;;;;;;;2.50;1.80;;;;;;;;;;5114962;28;20016;-45
2021/11/06 01:17:09;;;;;;;1.90;1.70;;;;;;;;;;5114536;28;20113;-45
2021/11/06 01:19:35;;;;;;;2.45;1.55;;;;;;;;;;5114919;28;20079;-45
2021/11/06 01:22:01;;;;;;;1.42;1.27;;;;;;;;;;5113639;28;20360;-46
2021/11/06 01:24:27;;;;;;;2.92;2.00;;;;;;;;;;5114688;28;20470;-45
2021/11/06 01:26:53;;;;;;;1.90;1.30;;;;;;;;;;5113685;28;20063;-46
2021/11/06 01:29:19;;;;;;;1.90;1.60;;;;;;;;;;5114296;28;20019;-45
2021/11/06 01:31:45;;;;;;;2.03;1.83;;;;;;;;;;5114143;28;20448;-51
2021/11/06 01:34:12;;;;;;;1.88;1.50;;;;;;;;;;5114344;28;20022;-45
2021/11/06 01:36:38;;;;;;;2.15;1.80;;;;;;;;;;5114119;28;20051;-45
2021/11/06 01:39:04;;;;;;;1.95;1.63;;;;;;;;;;5113685;28;20031;-45
2021/11/06 01:41:30;;;;;;;2.15;1.92;;;;;;;;;;5114512;28;20487;-45
2021/11/06 01:43:56;;;;;;;2.78;2.08;;;;;;;;;;5113611;28;20026;-45
2021/11/06 01:46:23;;;;;;;2.10;1.60;;;;;;;;;;5114650;28;20034;-45
2021/11/06 01:48:49;;;;;;;2.25;1.90;;;;;;;;;;5113784;28;20364;-52
2021/11/06 01:51:15;;;;;;;1.95;1.40;;;;;;;;;;5114103;28;20345;-45
2021/11/06 01:53:41;;;;;;;2.30;1.95;;;;;;;;;;5114455;28;20520;-45
2021/11/06 01:56:07;;;;;;;2.35;1.65;;;;;;;;;;5113583;28;20099;-45
2021/11/06 01:58:33;;;;;;;2.55;1.70;;;;;;;;;;5113815;28;20359;-46
2021/11/06 02:01:00;;;;;;;1.88;1.75;;;;;;;;;;5114459;28;20026;-45
2021/11/06 02:03:26;;;;;;;2.60;1.98;;;;;;;;;;5114610;28;20371;-45
2021/11/06 02:05:52;;;;;;;2.85;2.00;;;;;;;;;;5113053;28;20020;-45
2021/11/06 02:08:18;;;;;;;2.42;2.10;;;;;;;;;;5114156;28;20019;-46
2021/11/06 02:10:45;;;;;;;3.10;1.98;;;;;;;;;;5114102;28;20016;-45
2021/11/06 02:13:11;;;;;;;2.15;1.90;;;;;;;;;;5113530;28;20038;-45
2021/11/06 02:15:38;;;;;;;1.60;1.50;;;;;;;;;;5113897;28;20050;-45
2021/11/06 02:18:04;;;;;;;2.20;1.83;;;;;;;;;;5113277;28;20016;-45
2021/11/06 02:20:30;;;;;;;2.05;1.65;;;;;;;;;;5113516;28;20027;-45
2021/11/06 02:22:56;;;;;;;2.10;1.90;;;;;;;;;;5113311;28;20026;-45
2021/11/06 02:25:23;;;;;;;2.38;1.65;;;;;;;;;;5113675;28;20035;-45
2021/11/06 02:27:49;;;;;;;3.05;1.80;;;;;;;;;;5113543;28;20149;-52
2021/11/06 02:30:17;;;;;;;2.30;1.83;;;;;;;;;;5113365;28;20015;-45
2021/11/06 02:32:44;;;;;;;2.03;1.65;;;;;;;;;;5113592;28;20019;-45
2021/11/06 02:35:10;;;;;;;1.85;1.60;;;;;;;;;;5112604;28;20134;-45
2021/11/06 02:37:36;;;;;;;2.92;2.10;;;;;;;;;;5113453;28;20027;-46
2021/11/06 02:40:06;;;;;;;2.55;1.90;;;;;;;;;;5112686;28;20421;-45
2021/11/06 02:42:32;;;;;;;3.47;2.00;;;;;;;;;;5112173;28;20015;-46
2021/11/06 02:44:58;;;;;;;2.08;1.65;;;;;;;;;;5112635;28;20026;-45
2021/11/06 02:47:24;;;;;;;3.10;2.05;;;;;;;;;;5112955;28;20371;-45
2021/11/06 02:49:50;;;;;;;2.75;2.20;;;;;;;;;;5112591;28;20019;-53
2021/11/06 02:52:16;;;;;;;2.25;1.58;;;;;;;;;;5112555;28;20418;-45
2021/11/06 02:54:42;;;;;;;2.33;2.05;;;;;;;;;;5112997;28;20422;-45
2021/11/06 02:57:12;;;;;;;2.13;1.63;;;;;;;;;;5093673;28;20625;-45
2021/11/06 02:59:38;;;;;;;2.35;1.88;;;;;;;;;;5113253;28;20087;-45
2021/11/06 03:02:04;;;;;;;3.47;2.60;;;;;;;;;;5093899;28;20392;-45
2021/11/06 03:04:35;;;;;;;2.90;2.35;;;;;;;;;;5113064;28;20016;-45
2021/11/06 03:07:01;;;;;;;3.63;1.90;;;;;;;;;;5112243;28;20390;-45
2021/11/06 03:09:27;;;;;;;2.53;1.75;;;;;;;;;;5112605;28;20015;-45
2021/11/06 03:11:53;;;;;;;2.75;1.73;;;;;;;;;;5112064;28;20016;-45
2021/11/06 03:14:21;;;;;;;3.55;2.42;;;;;;;;;;5112917;28;20048;-45
2021/11/06 03:16:47;;;;;;;2.92;2.05;;;;;;;;;;5112794;28;20031;-45
2021/11/06 03:19:13;;;;;;;2.33;1.95;;;;;;;;;;5112579;28;20368;-46
2021/11/06 03:21:39;;;;;;;3.45;2.22;;;;;;;;;;5112326;28;20019;-46
2021/11/06 03:24:05;;;;;;;4.18;2.38;;;;;;;;;;5111852;28;20022;-46
2021/11/06 03:26:31;;;;;;;3.28;1.95;;;;;;;;;;5112378;28;20039;-46
2021/11/06 03:28:57;;;;;;;2.35;1.60;;;;;;;;;;5111946;28;20024;-46
2021/11/06 03:31:23;;;;;;;2.17;1.75;;;;;;;;;;5112305;28;20023;-47
2021/11/06 03:33:52;;;;;;;3.13;1.92;;;;;;;;;;5112330;28;20433;-52
2021/11/06 03:36:18;;;;;;;2.83;2.03;;;;;;;;;;5112010;28;20430;-46
2021/11/06 03:38:45;;;;;;;2.63;1.85;;;;;;;;;;5112386;28;20031;-47
2021/11/06 03:41:11;;;;;;;2.22;1.85;;;;;;;;;;5111830;28;20012;-45
2021/11/06 03:43:37;;;;;;;2.38;1.77;;;;;;;;;;5112405;28;20020;-46
2021/11/06 03:46:03;;;;;;;2.58;1.75;;;;;;;;;;5111904;28;20084;-46
2021/11/06 03:48:29;;;;;;;2.97;2.08;;;;;;;;;;5112239;28;20020;-45
2021/11/06 03:50:56;;;;;;;3.97;2.33;;;;;;;;;;5111570;28;20020;-45
2021/11/06 03:53:22;;;;;;;2.45;1.80;;;;;;;;;;5114415;28;20043;-45
2021/11/06 03:55:48;;;;;;;2.22;1.85;;;;;;;;;;5116430;28;20042;-45
2021/11/06 03:58:14;;;;;;;2.58;2.05;;;;;;;;;;5115869;28;20024;-46
2021/11/06 04:00:40;;;;;;;3.25;2.13;;;;;;;;;;5116717;28;20026;-45
2021/11/06 04:03:06;;;;;;;1.75;1.63;;;;;;;;;;5115405;28;20441;-45
2021/11/06 04:05:32;;;;;;;2.65;1.75;;;;;;;;;;5116493;28;20435;-46
2021/11/06 04:07:58;;;;;;;3.08;2.65;;;;;;;;;;5115296;28;20475;-46
2021/11/06 04:10:24;;;;;;;3.30;2.13;;;;;;;;;;5116244;28;20372;-48
2021/11/06 04:12:56;;;;;;;2.22;1.70;;;;;;;;;;5116028;28;20073;-54
2021/11/06 04:15:23;;;;;;;2.75;2.30;;;;;;;;;;5116289;28;20540;-46
2021/11/06 04:17:49;;;;;;;2.47;1.67;;;;;;;;;;5116484;28;20015;-51
2021/11/06 04:20:15;;;;;;;2.00;1.73;;;;;;;;;;5115595;28;20411;-46
2021/11/06 04:22:41;;;;;;;3.10;2.40;;;;;;;;;;5115999;28;20120;-46
2021/11/06 04:25:08;;;;;;;2.38;1.98;;;;;;;;;;5115390;28;20027;-47
2021/11/06 04:27:34;;;;;;;2.10;1.85;;;;;;;;;;5116066;28;20027;-46
2021/11/06 04:30:00;;;;;;;2.28;1.80;;;;;;;;;;5115621;28;20046;-45
2021/11/06 04:32:26;;;;;;;2.95;2.22;;;;;;;;;;5115604;28;20487;-49
2021/11/06 04:34:52;;;;;;;2.83;2.10;;;;;;;;;;5115197;28;20024;-53
2021/11/06 04:37:18;;;;;;;4.35;2.35;;;;;;;;;;5115329;28;20047;-46
2021/11/06 04:39:44;;;;;;;2.45;2.05;;;;;;;;;;5115786;28;20525;-47
2021/11/06 04:42:10;;;;;;;2.35;1.67;;;;;;;;;;5115331;28;20233;-47
2021/11/06 04:44:36;;;;;;;2.65;1.60;;;;;;;;;;5115614;28;20022;-46
2021/11/06 04:47:03;;;;;;;2.85;2.17;;;;;;;;;;5096720;28;20419;-46
2021/11/06 04:49:30;;;;;;;2.08;1.92;;;;;;;;;;5115481;28;20024;-46
2021/11/06 04:51:56;;;;;;;2.40;2.13;;;;;;;;;;5114827;28;20020;-46
2021/11/06 04:54:22;;;;;;;2.80;2.00;;;;;;;;;;5115369;28;20028;-46
2021/11/06 04:56:50;;;;;;;2.67;1.92;;;;;;;;;;5115616;28;20363;-46
2021/11/06 04:59:16;;;;;;;2.53;1.80;;;;;;;;;;5114692;28;20020;-47
2021/11/06 05:01:42;;;;;;;1.73;1.63;;;;;;;;;;5115672;28;20126;-45
2021/11/06 05:04:08;;;;;;;2.30;2.00;;;;;;;;;;5113448;28;20030;-45
2021/11/06 05:06:34;;;;;;;2.55;1.98;;;;;;;;;;5115102;28;20118;-46
2021/11/06 05:09:00;;;;;;;2.38;1.90;;;;;;;;;;5114420;28;20096;-45
2021/11/06 05:11:26;;;;;;;2.67;1.50;;;;;;;;;;5115184;28;20464;-46
2021/11/06 05:13:53;;;;;;;2.17;1.92;;;;;;;;;;5114800;28;20015;-53
2021/11/06 05:16:19;;;;;;;2.17;1.98;;;;;;;;;;5114954;28;20026;-48
2021/11/06 05:18:45;;;;;;;2.22;1.90;;;;;;;;;;5115064;28;20503;-46
2021/11/06 05:21:11;;;;;;;2.78;1.90;;;;;;;;;;5114140;27;20183;-45
2021/11/06 05:23:37;;;;;;;2.90;2.20;;;;;;;;;;5114899;28;20016;-46
2021/11/06 05:26:03;;;;;;;2.67;2.00;;;;;;;;;;5114004;28;20161;-47
2021/11/06 05:28:29;;;;;;;1.90;1.70;;;;;;;;;;5114793;28;20019;-46
2021/11/06 05:30:55;;;;;;;2.83;1.80;;;;;;;;;;5113944;28;20088;-53
2021/11/06 05:33:21;;;;;;;2.08;1.60;;;;;;;;;;5114835;28;20468;-47
2021/11/06 05:35:47;;;;;;;2.25;1.77;;;;;;;;;;5114665;28;20046;-47
2021/11/06 05:38:13;;;;;;;2.38;1.50;;;;;;;;;;5095761;28;20080;-46
2021/11/06 05:40:39;;;;;;;2.65;1.98;;;;;;;;;;5114196;28;20406;-46
2021/11/06 05:43:06;;;;;;;3.08;2.30;;;;;;;;;;5113594;28;20457;-46
2021/11/06 05:45:32;;;;;;;3.75;1.80;;;;;;;;;;5114477;28;20077;-48
2021/11/06 05:47:58;;;;;;;2.47;2.15;;;;;;;;;;5113776;28;20027;-46
2021/11/06 05:50:24;;;;;;;3.50;2.47;;;;;;;;;;5114364;28;20022;-46
2021/11/06 05:52:50;;;;;;;2.10;1.80;;;;;;;;;;5114421;28;20040;-48
2021/11/06 05:55:17;;;;;;;1.95;1.75;;;;;;;;;;5113349;28;20048;-49
2021/11/06 05:57:43;;;;;;;2.53;1.83;;;;;;;;;;5114187;28;20066;-46
2021/11/06 06:00:11;;;;;;;2.53;1.98;;;;;;;;;;5113317;28;20468;-46
2021/11/06 06:02:37;;;;;;;2.45;1.95;;;;;;;;;;5114224;28;20409;-45
2021/11/06 06:05:05;;;;;;;2.83;1.95;;;;;;;;;;5113465;28;20020;-46
2021/11/06 06:07:31;;;;;;;2.50;1.88;;;;;;;;;;5113199;27;20084;-45
2021/11/06 06:09:57;;;;;;;2.92;1.98;;;;;;;;;;5113206;28;20089;-53
2021/11/06 06:12:23;;;;;;;3.05;2.00;;;;;;;;;;5114183;28;20047;-45
2021/11/06 06:14:49;;;;;;;2.00;1.50;;;;;;;;;;5113751;28;20390;-45
2021/11/06 06:17:15;;;;;;;2.20;1.90;;;;;;;;;;5113077;28;20103;-45
2021/11/06 06:19:41;;;;;;;2.58;1.80;;;;;;;;;;5113720;28;20019;-45
2021/11/06 06:22:07;;;;;;;3.30;2.08;;;;;;;;;;5112957;28;20020;-46
2021/11/06 06:24:33;;;;;;;2.30;1.77;;;;;;;;;;5113789;28;20019;-48
2021/11/06 06:26:59;;;;;;;2.50;1.92;;;;;;;;;;5112757;28;20038;-45
2021/11/06 06:29:26;;;;;;;2.83;1.98;;;;;;;;;;5113865;28;20055;-47
2021/11/06 06:31:52;;;;;;;3.10;2.20;;;;;;;;;;5113845;28;20095;-45
2021/11/06 06:34:18;;;;;;;2.58;1.63;;;;;;;;;;5112558;28;20084;-45
2021/11/06 06:36:44;;;;;;;2.05;1.80;;;;;;;;;;5122552;27;20047;-47
2021/11/06 06:39:10;;;;;;;2.80;1.73;;;;;;;;;;5121439;27;20016;-45
2021/11/06 06:41:36;;;;;;;2.30;1.48;;;;;;;;;;5123421;27;20041;-47
2021/11/06 06:44:02;;;;;;;2.83;2.00;;;;;;;;;;5123184;27;20380;-46
2021/11/06 06:46:28;;;;;;;3.08;1.70;;;;;;;;;;5121701;27;20099;-46
2021/11/06 06:48:54;;;;;;;2.45;1.60;;;;;;;;;;5123012;27;20452;-52
2021/11/06 06:51:20;;;;;;;9.68;6.60;;;;;;;;;;5121063;27;20023;-45
2021/11/06 06:53:46;;;;;;;9.70;6.03;;;;;;;;;;5111593;27;20019;-47
2021/11/06 06:56:12;;;;;;;7.35;5.82;;;;;;;;;;5122921;27;20032;-45
2021/11/06 06:58:39;;;;;;;6.20;4.70;;;;;;;;;;5120353;27;20020;-47
2021/11/06 07:01:05;;;;;;;7.05;5.40;;;;;;;;;;5124035;27;20075;-44
2021/11/06 07:03:31;;;;;;;6.25;4.10;;;;;;;;;;5121377;27;20095;-44
2021/11/06 07:05:57;;;;;;;5.05;3.97;;;;;;;;;;5121503;27;20027;-45
2021/11/06 07:08:23;;;;;;;3.72;2.92;;;;;;;;;;5121614;27;20015;-48
2021/11/06 07:10:49;;;;;;;5.30;3.67;;;;;;;;;;5123241;27;20018;-45
2021/11/06 07:13:20;;;;;;;4.53;3.40;;;;;;;;;;5120968;27;20015;-46
2021/11/06 07:15:46;;;;;;;5.57;4.10;;;;;;;;;;5121381;27;20022;-48
2021/11/06 07:18:13;;;;;;;5.80;4.15;;;;;;;;;;5122495;27;20017;-45
2021/11/06 07:20:39;;;;;;;4.70;3.45;;;;;;;;;;5120189;27;20011;-47
2021/11/06 07:23:05;;;;;;;4.53;3.42;;;;;;;;;;5119041;27;20374;-46
2021/11/06 07:25:31;;;;;;;5.50;3.97;;;;;;;;;;5118413;27;20019;-46
2021/11/06 07:27:58;;;;;;;5.47;3.67;;;;;;;;;;5120386;27;20035;-54
2021/11/06 07:30:24;;;;;;;5.30;3.88;;;;;;;;;;5121442;27;20025;-46
2021/11/06 07:32:50;;;;;;;4.78;3.67;;;;;;;;;;5122638;27;20022;-49
2021/11/06 07:35:17;;;;;;;4.80;4.07;;;;;;;;;;5120247;27;20146;-48
2021/11/06 07:37:43;;;;;;;6.25;3.97;;;;;;;;;;5120998;27;20023;-45
2021/11/06 07:40:11;;;;;;;4.57;3.50;;;;;;;;;;5121432;27;20022;-48
2021/11/06 07:42:38;;;;;;;5.25;2.22;;;;;;;;;;5121580;27;20012;-48
2021/11/06 07:45:06;;;;;;;3.63;2.50;;;;;;;;;;5119493;27;20102;-47
2021/11/06 07:47:32;;;;;;;3.30;2.20;;;;;;;;;;5120173;27;20076;-45
2021/11/06 07:49:58;;;;;;;2.17;1.75;;;;;;;;;;5117518;27;20012;-51
2021/11/06 07:52:25;;;;;;;1.80;1.50;;;;;;;;;;5121171;28;20098;-52
2021/11/06 07:54:51;;;;;;;4.00;1.58;;;;;;;;;;5117484;28;20012;-46
2021/11/06 07:57:17;;;;;;;3.75;2.00;;;;;;;;;;5120914;28;20158;-46
2021/11/06 07:59:43;;;;;;;2.40;1.67;;;;;;;;;;5121747;28;20039;-45
2021/11/06 08:02:10;;;;;;;2.40;1.67;;;;;;;;;;5119272;28;20064;-49
2021/11/06 08:04:36;;;;;;;1.23;1.10;;;;;;;;;;5121315;28;20456;-46
2021/11/06 08:07:02;;;;;;;2.53;1.50;;;;;;;;;;5102584;28;20031;-45
2021/11/06 08:09:28;;;;;;;1.83;1.52;;;;;;;;;;5120387;28;20022;-45
2021/11/06 08:11:56;;;;;;;3.53;1.30;;;;;;;;;;5121786;28;20027;-49
2021/11/06 08:14:22;;;;;;;3.00;1.20;;;;;;;;;;5121544;28;20031;-46
2021/11/06 08:16:50;;;;;;;3.05;1.40;;;;;;;;;;5119976;28;20015;-49
2021/11/06 08:19:16;;;;;;;3.70;1.33;;;;;;;;;;5120593;28;20098;-50
2021/11/06 08:21:42;;;;;;;2.53;1.30;;;;;;;;;;5121738;28;20077;-45
2021/11/06 08:24:08;;;;;;;3.80;1.30;;;;;;;;;;5118240;28;20022;-47
2021/11/06 08:26:35;;;;;;;1.85;1.30;;;;;;;;;;5119318;28;20038;-46
2021/11/06 08:29:01;;;;;;;1.90;1.45;;;;;;;;;;5120752;28;20460;-49
2021/11/06 08:31:27;;;;;;;1.52;1.02;;;;;;;;;;5119227;28;20028;-46
2021/11/06 08:33:53;;;;;;;1.50;1.40;;;;;;;;;;5121713;28;20015;-46
2021/11/06 08:36:19;;;;;;;1.73;1.10;;;;;;;;;;5120040;28;20046;-47
2021/11/06 08:38:45;;;;;;;3.33;1.10;;;;;;;;;;5120930;27;20080;-45
2021/11/06 08:41:11;;;;;;;1.92;1.48;;;;;;;;;;5124830;27;20038;-45
2021/11/06 08:43:37;;;;;;;1.65;1.23;;;;;;;;;;5124588;27;20474;-46
2021/11/06 08:46:04;;;;;;;1.58;1.23;;;;;;;;;;5123111;27;20102;-47
2021/11/06 08:48:31;;;;;;;2.17;1.85;;;;;;;;;;5121285;27;20026;-45
2021/11/06 08:50:57;;;;;;;3.33;1.67;;;;;;;;;;5124859;27;20016;-45
2021/11/06 08:53:23;;;;;;;2.03;1.30;;;;;;;;;;5123648;27;20028;-46
2021/11/06 08:55:49;;;;;;;1.42;1.30;;;;;;;;;;5123730;27;20055;-46
2021/11/06 08:58:15;;;;;;;1.73;1.30;;;;;;;;;;5124386;27;20389;-45
2021/11/06 09:00:43;;;;;;;2.60;1.60;;;;;;;;;;5125158;27;20047;-45
2021/11/06 09:03:15;;;;;;;1.77;1.20;;;;;;;;;;5122831;27;20016;-46
2021/11/06 09:05:41;;;;;;;3.50;1.80;;;;;;;;;;5124317;27;20012;-46
2021/11/06 09:08:08;;;;;;;1.70;1.40;;;;;;;;;;5125129;27;20026;-48
2021/11/06 09:10:35;;;;;;;1.98;1.15;;;;;;;;;;5123851;27;20019;-44
2021/11/06 09:13:01;;;;;;;2.13;1.40;;;;;;;;;;5123612;27;20616;-45
2021/11/06 09:15:27;;;;;;;1.95;1.38;;;;;;;;;;5125308;27;20015;-46
2021/11/06 09:17:53;;;;;;;2.10;1.35;;;;;;;;;;5123149;27;20111;-46
2021/11/06 09:20:20;;;;;;;1.88;1.40;;;;;;;;;;5124617;27;20038;-48
2021/11/06 09:22:48;;;;;;;1.77;1.35;;;;;;;;;;5122651;27;20031;-46
2021/11/06 09:25:15;;;;;;;1.45;1.10;;;;;;;;;;5129345;27;20015;-46
2021/11/06 09:27:42;;;;;;;1.90;1.70;;;;;;;;;;5132028;27;20042;-46
2021/11/06 09:30:08;;;;;;;3.03;1.40;;;;;;;;;;5134923;27;20019;-48
2021/11/06 09:32:35;;;;;;;2.88;1.13;;;;;;;;;;5135226;27;20023;-47
2021/11/06 09:35:02;;;;;;;1.95;1.60;;;;;;;;;;5135226;27;20015;-45
2021/11/06 09:37:28;;;;;;;5.93;1.15;;;;;;;;;;5135265;27;20023;-45
2021/11/06 09:39:54;;;;;;;2.30;1.25;;;;;;;;;;5134895;27;20027;-46
2021/11/06 09:42:20;;;;;;;1.83;1.15;;;;;;;;;;5135114;27;20015;-46
2021/11/06 09:44:46;;;;;;;3.63;1.33;;;;;;;;;;5135376;27;20022;-45
2021/11/06 09:47:13;;;;;;;1.73;1.20;;;;;;;;;;5129993;27;20341;-46
2021/11/06 09:49:40;;;;;;;2.85;1.50;;;;;;;;;;5127293;27;20385;-46
2021/11/06 09:52:06;;;;;;;2.08;1.27;;;;;;;;;;5131269;27;20018;-47
2021/11/06 09:54:33;;;;;;;2.17;1.40;;;;;;;;;;5117915;27;20095;-47
2021/11/06 09:57:01;;;;;;;3.00;1.65;;;;;;;;;;5113798;28;20036;-53
2021/11/06 09:59:27;;;;;;;3.53;1.30;;;;;;;;;;5114057;28;20098;-48
2021/11/06 10:01:53;;;;;;;1.65;1.30;;;;;;;;;;5113945;28;20372;-48
2021/11/06 10:04:19;;;;;;;3.92;1.33;;;;;;;;;;5114403;28;20019;-51
2021/11/06 10:06:46;;;;;;;2.47;1.50;;;;;;;;;;5113989;28;20073;-47
2021/11/06 10:09:13;;;;;;;2.22;1.30;;;;;;;;;;5112959;28;20133;-49
2021/11/06 10:11:43;;;;;;;1.95;1.20;;;;;;;;;;5114035;28;20356;-43
2021/11/06 10:14:10;;;;;;;1.48;1.13;;;;;;;;;;5112758;28;20022;-43
2021/11/06 10:16:40;;;;;;;2.03;1.20;;;;;;;;;;5113018;28;20110;-44
2021/11/06 10:19:11;;;;;;;1.90;1.17;;;;;;;;;;5112056;28;20012;-46
2021/11/06 10:21:38;;;;;;;3.83;1.67;;;;;;;;;;5112943;28;20008;-52
2021/11/06 10:24:05;;;;;;;1.23;1.10;;;;;;;;;;5112370;28;20016;-47
2021/11/06 10:26:31;;;;;;;1.73;1.08;;;;;;;;;;5113629;28;20034;-46
2021/11/06 10:29:06;;;;;;;2.25;0.82;;;;;;;;;;5124959;27;20071;-45
2021/11/06 10:31:34;;;;;;;1.85;1.35;;;;;;;;;;5119615;27;20047;-44
2021/11/06 10:34:10;;;;;;;3.55;1.20;;;;;;;;;;5135204;27;20030;-44
2021/11/06 10:36:36;;;;;;;3.47;1.02;;;;;;;;;;5134165;27;20290;-48
2021/11/06 10:39:06;;;;;;;1.77;1.27;;;;;;;;;;5127175;27;20074;-49
2021/11/06 10:41:33;;;;;;;1.90;1.10;;;;;;;;;;5128263;27;20030;-45
2021/11/06 10:43:59;;;;;;;5.10;1.35;;;;;;;;;;5131447;27;20015;-45
2021/11/06 10:46:26;;;;;;;1.15;1.05;;;;;;;;;;5115913;27;20038;-44
2021/11/06 10:48:52;;;;;;;2.30;1.75;;;;;;;;;;5124215;27;20027;-46
2021/11/06 10:51:18;;;;;;;2.45;1.10;;;;;;;;;;5112739;28;20416;-44
2021/11/06 10:53:44;;;;;;;1.83;1.10;;;;;;;;;;5113378;28;20030;-45
2021/11/06 10:56:13;;;;;;;3.55;1.13;;;;;;;;;;5112814;28;20329;-42
2021/11/06 10:58:40;;;;;;;3.55;1.60;;;;;;;;;;5112930;28;20015;-44
2021/11/06 11:01:08;;;;;;;1.98;1.33;;;;;;;;;;5112391;28;20012;-45
2021/11/06 11:03:44;;;;;;;1.70;1.17;;;;;;;;;;5112186;28;20015;-43
2021/11/06 11:06:18;;;;;;;2.65;1.42;;;;;;;;;;5112612;28;20360;-44
2021/11/06 11:08:46;;;;;;;3.63;1.63;;;;;;;;;;5113034;28;20051;-53
2021/11/06 11:11:12;;;;;;;4.18;1.73;;;;;;;;;;5112599;28;20019;-45
2021/11/06 11:13:49;;;;;;;1.73;1.30;;;;;;;;;;5113066;28;20103;-46
2021/11/06 11:16:16;;;;;;;3.75;2.05;;;;;;;;;;5112331;28;20019;-43
2021/11/06 11:18:43;;;;;;;2.38;1.20;;;;;;;;;;5112626;28;20465;-43
2021/11/06 11:21:10;;;;;;;6.40;1.85;;;;;;;;;;5115767;27;20015;-45
2021/11/06 11:23:36;;;;;;;5.88;1.02;;;;;;;;;;5117592;27;20019;-43
2021/11/06 11:26:02;;;;;;;2.30;1.20;;;;;;;;;;5111907;28;20035;-43
2021/11/06 11:28:28;;;;;;;1.88;1.08;;;;;;;;;;5112531;28;20027;-44
2021/11/06 11:30:54;;;;;;;3.63;1.30;;;;;;;;;;5111480;27;20023;-43
2021/11/06 11:33:21;;;;;;;3.13;1.75;;;;;;;;;;5111972;28;20057;-43
2021/11/06 11:35:47;;;;;;;2.97;1.48;;;;;;;;;;5112839;28;20040;-43
2021/11/06 11:38:13;;;;;;;3.75;1.45;;;;;;;;;;5112160;28;20356;-45
2021/11/06 11:40:43;;;;;;;3.05;1.95;;;;;;;;;;5112416;28;20452;-43
2021/11/06 11:43:27;;;;;;;2.42;1.38;;;;;;;;;;5129568;27;20027;-46
2021/11/06 11:45:58;;;;;;;2.28;1.50;;;;;;;;;;5133191;27;20046;-43
2021/11/06 11:48:26;;;;;;;1.70;1.60;;;;;;;;;;5128262;27;20091;-43
2021/11/06 11:50:58;;;;;;;3.85;1.65;;;;;;;;;;5112420;28;20106;-44
2021/11/06 11:53:24;;;;;;;;;;;;;;;;;;5116376;28;20023;-43
2021/11/06 11:55:51;;;;;;;1.90;1.70;;;;;;;;;;5133075;28;19899;-43
2021/11/06 11:58:20;;;;;;;2.38;1.55;;;;;;;;;;5132466;28;20482;-43
2021/11/06 12:00:48;;;;;;;1.92;1.63;;;;;;;;;;5126838;28;20394;-43
2021/11/06 12:03:14;;;;;;;2.33;1.70;;;;;;;;;;5132641;28;20363;-43
2021/11/06 12:05:46;;;;;;;1.50;1.30;;;;;;;;;;5132943;28;20016;-46
2021/11/06 12:08:13;;;;;;;2.30;1.70;;;;;;;;;;5132340;28;20027;-43
2021/11/06 12:10:40;;;;;;;3.88;2.10;;;;;;;;;;5132988;28;20026;-43
2021/11/06 12:13:26;;;;;;;3.35;1.60;;;;;;;;;;5132541;27;20018;-45
2021/11/06 12:15:55;;;;;;;3.13;1.80;;;;;;;;;;5136859;27;20019;-43
2021/11/06 12:18:36;;;;;;;5.50;2.17;;;;;;;;;;5132188;27;20223;-43
2021/11/06 12:21:19;;;;;;;2.35;1.88;;;;;;;;;;5115705;28;20012;-43
2021/11/06 12:23:50;;;;;;;3.63;1.80;;;;;;;;;;5116380;28;20028;-44
2021/11/06 12:26:17;;;;;;;2.25;1.90;;;;;;;;;;5131235;27;20027;-44
2021/11/06 12:28:44;;;;;;;3.80;2.00;;;;;;;;;;5136969;27;20372;-43
2021/11/06 12:31:29;;;;;;;2.50;2.17;;;;;;;;;;5126794;27;20027;-43
2021/11/06 12:33:56;;;;;;;2.70;2.00;;;;;;;;;;5116332;28;20456;-43
2021/11/06 12:36:23;;;;;;;2.83;2.17;;;;;;;;;;5115310;28;20051;-44
2021/11/06 12:38:50;;;;;;;4.22;2.03;;;;;;;;;;5116229;28;20031;-44
2021/11/06 12:41:26;;;;;;;2.47;1.90;;;;;;;;;;5115430;28;20165;-42
2021/11/06 12:43:52;;;;;;;2.22;1.88;;;;;;;;;;5115742;28;20020;-43
2021/11/06 12:46:23;;;;;;;2.05;1.63;;;;;;;;;;5115118;28;20023;-44
2021/11/06 12:48:50;;;;;;;2.47;1.95;;;;;;;;;;5115887;28;20018;-52
2021/11/06 12:51:17;;;;;;;2.78;1.80;;;;;;;;;;5115110;28;20467;-43
2021/11/06 12:53:45;;;;;;;2.22;2.03;;;;;;;;;;5115912;28;20031;-44
2021/11/06 12:56:11;;;;;;;5.90;2.00;;;;;;;;;;5114909;28;20115;-57
2021/11/06 12:58:39;;;;;;;8.90;2.55;;;;;;;;;;5115698;28;20026;-45
2021/11/06 13:01:18;;;;;;;4.47;2.53;;;;;;;;;;5123196;27;20056;-50
2021/11/06 13:03:44;;;;;;;5.10;2.28;;;;;;;;;;5136461;27;20034;-46
2021/11/06 13:06:27;;;;;;;4.15;2.60;;;;;;;;;;5135333;27;20023;-46
2021/11/06 13:09:11;;;;;;;5.55;2.42;;;;;;;;;;5135943;27;20020;-47
2021/11/06 13:11:55;;;;;;;5.93;2.63;;;;;;;;;;5135209;27;20420;-46
2021/11/06 13:14:39;;;;;;;3.60;2.13;;;;;;;;;;5130913;27;20061;-52
2021/11/06 13:17:16;;;;;;;7.15;2.67;;;;;;;;;;5123488;27;20020;-46
2021/11/06 13:19:42;;;;;;;7.70;2.72;;;;;;;;;;5115131;28;20356;-43
2021/11/06 13:22:09;;;;;;;7.25;2.60;;;;;;;;;;5114462;28;20414;-43
2021/11/06 13:24:54;;;;;;;6.25;2.63;;;;;;;;;;5114728;28;20495;-44
2021/11/06 13:27:39;;;;;;;7.63;2.45;;;;;;;;;;5114874;27;20084;-44
2021/11/06 13:30:16;;;;;;;5.68;2.90;;;;;;;;;;5123861;27;20019;-44
2021/11/06 13:32:55;;;;;;;5.30;2.28;;;;;;;;;;5123311;27;20098;-45
2021/11/06 13:35:21;;;;;;;4.88;2.47;;;;;;;;;;5113685;28;20054;-44
2021/11/06 13:38:07;;;;;;;12.23;2.85;;;;;;;;;;5115067;28;20415;-44
2021/11/06 13:40:42;;;;;;;5.10;2.53;;;;;;;;;;5119469;27;20051;-44
2021/11/06 13:43:16;;;;;;;7.55;3.00;;;;;;;;;;5126986;27;20085;-44
2021/11/06 13:46:05;;;;;;;9.18;2.83;;;;;;;;;;5120702;27;20019;-44
2021/11/06 13:48:34;;;;;;;6.25;3.10;;;;;;;;;;5104256;28;20035;-47
2021/11/06 13:51:14;;;;;;;5.57;2.97;;;;;;;;;;5126472;27;20007;-46
2021/11/06 13:53:40;;;;;;;7.28;2.90;;;;;;;;;;5135033;27;20414;-44
2021/11/06 13:56:06;;;;;;;6.35;3.13;;;;;;;;;;5133328;27;20371;-45
2021/11/06 13:58:33;;;;;;;6.53;2.65;;;;;;;;;;5122678;27;20535;-45
2021/11/06 14:00:59;;;;;;;13.07;3.28;;;;;;;;;;5115680;27;20024;-45
2021/11/06 14:03:26;;;;;;;6.43;2.85;;;;;;;;;;5117041;27;20016;-49
2021/11/06 14:05:52;;;;;;;5.45;2.45;;;;;;;;;;5122088;27;20016;-45
2021/11/06 14:08:18;;;;;;;5.38;2.50;;;;;;;;;;5113564;28;20011;-46
2021/11/06 14:10:44;;;;;;;8.70;3.28;;;;;;;;;;5114175;28;20023;-46
2021/11/06 14:13:11;;;;;;;6.35;3.13;;;;;;;;;;5113709;28;20011;-48
2021/11/06 14:15:44;;;;;;;10.75;3.35;;;;;;;;;;5113702;28;20024;-47
2021/11/06 14:18:13;;;;;;;4.30;2.85;;;;;;;;;;5113195;28;20031;-45
2021/11/06 14:20:45;;;;;;;5.30;2.92;;;;;;;;;;5113987;28;20026;-50
2021/11/06 14:23:13;;;;;;;7.05;3.38;;;;;;;;;;5113098;28;20027;-58
2021/11/06 14:25:43;;;;;;;9.13;3.33;;;;;;;;;;5113689;28;20094;-50
2021/11/06 14:28:09;;;;;;;9.32;3.33;;;;;;;;;;5112661;28;20400;-46
2021/11/06 14:30:54;;;;;;;8.25;3.00;;;;;;;;;;5113372;28;20065;-44
2021/11/06 14:33:39;;;;;;;6.55;3.08;;;;;;;;;;5112852;28;20057;-44
2021/11/06 14:36:15;;;;;;;8.45;3.60;;;;;;;;;;5112814;28;20044;-44
2021/11/06 14:38:55;;;;;;;11.40;3.20;;;;;;;;;;5113418;28;20172;-43
2021/11/06 14:41:23;;;;;;;8.55;4.07;;;;;;;;;;5113079;28;20015;-43
2021/11/06 14:43:53;;;;;;;5.05;3.20;;;;;;;;;;5113204;28;20034;-46
2021/11/06 14:46:19;;;;;;;7.85;4.28;;;;;;;;;;5113171;28;20028;-42